CLA2 weather

Public forecast

Using degrees Celsius for public forecast. Weather courtesy of forecast.io.

Closest aviation weather report (METAR) to L'Assomption Airport

Closest report is MontrĂ©al / Saint-Hubert Airport, 18.4 nm (34.2 km) S. Retrieved 2020/08/09 08:00 UTC (47 minutes ago):

CYHU 090800Z AUTO 21006KT 9SM OVC090 20/18 A3004 RMK SLP175 DENSITY ALT 500FT

Closest aviation forecast (TAF) to L'Assomption Airport

Closest forecast is MontrĂ©al / Saint-Hubert Airport, 18.4 nm (34.2 km) S. Retrieved 2020/08/09 06:42 UTC (2 hours ago):

TAF CYHU 090538Z 0906/1006 20005KT P6SM BKN240 FM090800 21008KT P6SM SCT060 BKN240 FM091700 24012KT P6SM -SHRA BKN050 BKN100 FM092200 25012KT P6SM -SHRA OVC030 FM100000 24010KT P6SM OVC025 FM100300 24008KT 6SM BR OVC020 RMK FCST BASED ON AUTO OBS NXT FCST BY 091200Z